sensor_id;sensor_type;location;lat;lon;timestamp;pressure;altitude;pressure_sealevel;temperature;humidity
70909;BME280;58554;52.006;5.926;2023-01-29T00:00:02;102157.28;;;0.46;80.57
70909;BME280;58554;52.006;5.926;2023-01-29T00:02:29;102159.00;;;0.44;80.42
70909;BME280;58554;52.006;5.926;2023-01-29T00:04:56;102152.03;;;0.39;80.51
70909;BME280;58554;52.006;5.926;2023-01-29T00:07:25;102154.63;;;0.39;80.53
70909;BME280;58554;52.006;5.926;2023-01-29T00:09:51;102155.50;;;0.38;80.50
70909;BME280;58554;52.006;5.926;2023-01-29T00:12:18;102159.84;;;0.39;80.53
70909;BME280;58554;52.006;5.926;2023-01-29T00:14:44;102153.75;;;0.37;80.44
70909;BME280;58554;52.006;5.926;2023-01-29T00:17:11;102158.94;;;0.34;80.66
70909;BME280;58554;52.006;5.926;2023-01-29T00:19:37;102155.47;;;0.35;80.49
70909;BME280;58554;52.006;5.926;2023-01-29T00:22:04;102162.41;;;0.33;80.74
70909;BME280;58554;52.006;5.926;2023-01-29T00:24:33;102148.53;;;0.31;80.81
70909;BME280;58554;52.006;5.926;2023-01-29T00:26:59;102150.25;;;0.29;80.91
70909;BME280;58554;52.006;5.926;2023-01-29T00:29:26;102141.56;;;0.30;80.93
70909;BME280;58554;52.006;5.926;2023-01-29T00:31:52;102132.94;;;0.31;80.71
70909;BME280;58554;52.006;5.926;2023-01-29T00:34:19;102137.25;;;0.31;80.89
70909;BME280;58554;52.006;5.926;2023-01-29T00:36:45;102130.28;;;0.28;80.80
70909;BME280;58554;52.006;5.926;2023-01-29T00:39:12;102127.69;;;0.25;80.89
70909;BME280;58554;52.006;5.926;2023-01-29T00:41:41;102125.91;;;0.24;80.74
70909;BME280;58554;52.006;5.926;2023-01-29T00:44:08;102125.06;;;0.25;80.82
70909;BME280;58554;52.006;5.926;2023-01-29T00:46:34;102118.13;;;0.24;80.62
70909;BME280;58554;52.006;5.926;2023-01-29T00:49:01;102116.38;;;0.23;80.94
70909;BME280;58554;52.006;5.926;2023-01-29T00:51:28;102108.56;;;0.21;80.73
70909;BME280;58554;52.006;5.926;2023-01-29T00:53:54;102113.78;;;0.21;80.72
70909;BME280;58554;52.006;5.926;2023-01-29T00:56:21;102111.16;;;0.21;80.85
70909;BME280;58554;52.006;5.926;2023-01-29T00:58:50;102117.25;;;0.24;80.50
70909;BME280;58554;52.006;5.926;2023-01-29T01:01:17;102119.84;;;0.22;80.93
70909;BME280;58554;52.006;5.926;2023-01-29T01:03:44;102124.19;;;0.23;80.93
70909;BME280;58554;52.006;5.926;2023-01-29T01:06:10;102127.69;;;0.25;80.70
70909;BME280;58554;52.006;5.926;2023-01-29T01:08:36;102123.34;;;0.26;80.73
70909;BME280;58554;52.006;5.926;2023-01-29T01:11:04;102117.28;;;0.25;80.69
70909;BME280;58554;52.006;5.926;2023-01-29T01:13:31;102119.00;;;0.26;80.81
70909;BME280;58554;52.006;5.926;2023-01-29T01:16:01;102122.47;;;0.25;80.67
70909;BME280;58554;52.006;5.926;2023-01-29T01:18:33;102126.81;;;0.26;80.73
70909;BME280;58554;52.006;5.926;2023-01-29T01:21:00;102122.47;;;0.25;80.59
70909;BME280;58554;52.006;5.926;2023-01-29T01:23:26;102119.88;;;0.25;80.91
70909;BME280;58554;52.006;5.926;2023-01-29T01:25:53;102111.19;;;0.23;80.68
70909;BME280;58554;52.006;5.926;2023-01-29T01:28:19;102105.97;;;0.21;80.72
70909;BME280;58554;52.006;5.926;2023-01-29T01:30:46;102095.53;;;0.20;81.00
70909;BME280;58554;52.006;5.926;2023-01-29T01:33:15;102107.66;;;0.18;80.87
70909;BME280;58554;52.006;5.926;2023-01-29T01:35:41;102107.66;;;0.18;80.88
70909;BME280;58554;52.006;5.926;2023-01-29T01:38:08;102106.81;;;0.17;80.67
70909;BME280;58554;52.006;5.926;2023-01-29T01:40:35;102105.94;;;0.17;80.94
70909;BME280;58554;52.006;5.926;2023-01-29T01:43:01;102111.97;;;0.14;80.65
70909;BME280;58554;52.006;5.926;2023-01-29T01:45:29;102111.09;;;0.14;80.92
70909;BME280;58554;52.006;5.926;2023-01-29T01:48:00;102106.78;;;0.13;80.90
70909;BME280;58554;52.006;5.926;2023-01-29T01:50:34;102103.28;;;0.12;80.71
70909;BME280;58554;52.006;5.926;2023-01-29T01:53:12;102103.28;;;0.11;80.89
70909;BME280;58554;52.006;5.926;2023-01-29T01:55:45;102111.06;;;0.09;80.88
70909;BME280;58554;52.006;5.926;2023-01-29T01:58:17;102117.13;;;0.08;80.90
70909;BME280;58554;52.006;5.926;2023-01-29T02:00:50;102129.25;;;0.08;81.10
70909;BME280;58554;52.006;5.926;2023-01-29T02:03:19;102126.69;;;0.09;81.12
70909;BME280;58554;52.006;5.926;2023-01-29T02:05:52;102124.06;;;0.08;81.13
70909;BME280;58554;52.006;5.926;2023-01-29T02:08:30;102126.69;;;0.11;81.19
70909;BME280;58554;52.006;5.926;2023-01-29T02:11:05;102124.06;;;0.08;81.24
70909;BME280;58554;52.006;5.926;2023-01-29T02:13:33;102123.19;;;0.07;81.21
70909;BME280;58554;52.006;5.926;2023-01-29T02:15:59;102119.72;;;0.05;81.06
70909;BME280;58554;52.006;5.926;2023-01-29T02:18:26;102115.34;;;0.04;81.37
70909;BME280;58554;52.006;5.926;2023-01-29T02:21:10;102124.88;;;0.04;81.44
70909;BME280;58554;52.006;5.926;2023-01-29T02:24:14;102116.22;;;0.03;81.44
70909;BME280;58554;52.006;5.926;2023-01-29T02:27:02;102121.41;;;0.01;81.37
70909;BME280;58554;52.006;5.926;2023-01-29T02:29:44;102122.28;;;0.00;81.47
70909;BME280;58554;52.006;5.926;2023-01-29T02:32:24;102119.66;;;0.02;81.45
70909;BME280;58554;52.006;5.926;2023-01-29T02:35:10;102121.41;;;0.01;81.56
70909;BME280;58554;52.006;5.926;2023-01-29T02:37:51;102111.88;;;0.04;81.39
70909;BME280;58554;52.006;5.926;2023-01-29T02:40:28;102104.97;;;0.03;81.38
70909;BME280;58554;52.006;5.926;2023-01-29T02:43:07;102099.75;;;0.04;81.49
70909;BME280;58554;52.006;5.926;2023-01-29T02:45:51;102107.53;;;0.01;81.54
70909;BME280;58554;52.006;5.926;2023-01-29T02:48:28;102113.59;;;-0.00;81.60
70909;BME280;58554;52.006;5.926;2023-01-29T02:51:09;102118.78;;;-0.02;81.68
70909;BME280;58554;52.006;5.926;2023-01-29T02:53:49;102118.78;;;-0.02;81.42
70909;BME280;58554;52.006;5.926;2023-01-29T02:56:26;102132.69;;;0.00;81.53
70909;BME280;58554;52.006;5.926;2023-01-29T02:59:04;102130.06;;;0.02;81.46
70909;BME280;58554;52.006;5.926;2023-01-29T03:01:42;102124.88;;;0.02;81.33
70909;BME280;58554;52.006;5.926;2023-01-29T03:04:17;102130.97;;;0.03;81.38
70909;BME280;58554;52.006;5.926;2023-01-29T03:06:52;102130.13;;;0.05;81.43
70909;BME280;58554;52.006;5.926;2023-01-29T03:09:29;102129.25;;;0.05;81.22
70909;BME280;58554;52.006;5.926;2023-01-29T03:12:04;102127.50;;;0.04;81.33
70909;BME280;58554;52.006;5.926;2023-01-29T03:14:39;102130.09;;;0.00;81.31
70909;BME280;58554;52.006;5.926;2023-01-29T03:17:10;102117.09;;;0.04;81.45
70909;BME280;58554;52.006;5.926;2023-01-29T03:19:40;102124.88;;;0.04;81.46
70909;BME280;58554;52.006;5.926;2023-01-29T03:22:13;102111.88;;;0.00;81.17
70909;BME280;58554;52.006;5.926;2023-01-29T03:24:46;102109.25;;;-0.01;81.24
70909;BME280;58554;52.006;5.926;2023-01-29T03:27:17;102102.31;;;-0.04;81.53
70909;BME280;58554;52.006;5.926;2023-01-29T03:29:51;102096.25;;;-0.04;81.44
70909;BME280;58554;52.006;5.926;2023-01-29T03:32:23;102089.31;;;-0.04;81.53
70909;BME280;58554;52.006;5.926;2023-01-29T03:34:57;102086.72;;;-0.04;81.46
70909;BME280;58554;52.006;5.926;2023-01-29T03:37:30;102082.38;;;-0.03;81.51
70909;BME280;58554;52.006;5.926;2023-01-29T03:40:01;102075.44;;;-0.04;81.42
70909;BME280;58554;52.006;5.926;2023-01-29T03:42:34;102073.69;;;-0.05;81.31
70909;BME280;58554;52.006;5.926;2023-01-29T03:45:15;102068.47;;;-0.10;81.39
70909;BME280;58554;52.006;5.926;2023-01-29T03:48:02;102070.19;;;-0.12;81.46
70909;BME280;58554;52.006;5.926;2023-01-29T03:50:37;102064.06;;;-0.15;81.57
70909;BME280;58554;52.006;5.926;2023-01-29T03:53:18;102058.00;;;-0.16;81.49
70909;BME280;58554;52.006;5.926;2023-01-29T03:55:56;102064.06;;;-0.17;81.77
70909;BME280;58554;52.006;5.926;2023-01-29T03:58:33;102059.75;;;-0.16;81.77
70909;BME280;58554;52.006;5.926;2023-01-29T04:01:10;102058.00;;;-0.16;81.63
70909;BME280;58554;52.006;5.926;2023-01-29T04:03:49;102051.06;;;-0.15;81.57
70909;BME280;58554;52.006;5.926;2023-01-29T04:06:22;102052.81;;;-0.16;81.63
70909;BME280;58554;52.006;5.926;2023-01-29T04:08:57;102058.88;;;-0.15;81.70
70909;BME280;58554;52.006;5.926;2023-01-29T04:11:28;102064.94;;;-0.16;81.84
70909;BME280;58554;52.006;5.926;2023-01-29T04:13:59;102068.41;;;-0.16;81.59
70909;BME280;58554;52.006;5.926;2023-01-29T04:16:28;102067.53;;;-0.15;81.58
70909;BME280;58554;52.006;5.926;2023-01-29T04:19:04;102055.41;;;-0.16;81.63
70909;BME280;58554;52.006;5.926;2023-01-29T04:21:31;102051.06;;;-0.17;81.62
70909;BME280;58554;52.006;5.926;2023-01-29T04:23:59;102045.00;;;-0.17;81.60
70909;BME280;58554;52.006;5.926;2023-01-29T04:26:41;102032.84;;;-0.17;81.70
70909;BME280;58554;52.006;5.926;2023-01-29T04:29:28;102026.81;;;-0.16;81.76
70909;BME280;58554;52.006;5.926;2023-01-29T04:32:10;102024.19;;;-0.19;81.80
70909;BME280;58554;52.006;5.926;2023-01-29T04:34:54;102017.25;;;-0.20;81.78
70909;BME280;58554;52.006;5.926;2023-01-29T04:37:35;102022.47;;;-0.18;81.76
70909;BME280;58554;52.006;5.926;2023-01-29T04:40:17;102031.13;;;-0.20;81.80
70909;BME280;58554;52.006;5.926;2023-01-29T04:42:55;102032.00;;;-0.21;82.03
70909;BME280;58554;52.006;5.926;2023-01-29T04:45:37;102035.44;;;-0.22;82.04
70909;BME280;58554;52.006;5.926;2023-01-29T04:48:18;102024.16;;;-0.24;82.06
70909;BME280;58554;52.006;5.926;2023-01-29T04:50:56;102034.56;;;-0.22;82.09
70909;BME280;58554;52.006;5.926;2023-01-29T04:53:37;102018.09;;;-0.21;81.93
70909;BME280;58554;52.006;5.926;2023-01-29T04:56:17;102018.09;;;-0.21;81.88
70909;BME280;58554;52.006;5.926;2023-01-29T04:58:51;102015.53;;;-0.20;82.03
70909;BME280;58554;52.006;5.926;2023-01-29T05:01:26;102014.66;;;-0.17;82.04
70909;BME280;58554;52.006;5.926;2023-01-29T05:03:56;102015.56;;;-0.16;81.88
70909;BME280;58554;52.006;5.926;2023-01-29T05:06:29;102006.91;;;-0.14;81.82
70909;BME280;58554;52.006;5.926;2023-01-29T05:08:58;102005.16;;;-0.13;81.74
70909;BME280;58554;52.006;5.926;2023-01-29T05:11:29;102001.69;;;-0.14;81.66
70909;BME280;58554;52.006;5.926;2023-01-29T05:13:57;102006.91;;;-0.12;81.98
70909;BME280;58554;52.006;5.926;2023-01-29T05:16:26;102007.78;;;-0.12;81.88
70909;BME280;58554;52.006;5.926;2023-01-29T05:18:56;101999.09;;;-0.14;81.91
70909;BME280;58554;52.006;5.926;2023-01-29T05:21:23;101998.22;;;-0.13;81.94
70909;BME280;58554;52.006;5.926;2023-01-29T05:24:11;102001.72;;;-0.09;81.91
70909;BME280;58554;52.006;5.926;2023-01-29T05:26:41;102006.91;;;-0.11;81.91
70909;BME280;58554;52.006;5.926;2023-01-29T05:29:09;102012.13;;;-0.09;82.06
70909;BME280;58554;52.006;5.926;2023-01-29T05:31:35;102009.53;;;-0.08;81.86
70909;BME280;58554;52.006;5.926;2023-01-29T05:34:02;102004.34;;;-0.08;81.83
70909;BME280;58554;52.006;5.926;2023-01-29T05:36:28;102006.06;;;-0.07;81.92
70909;BME280;58554;52.006;5.926;2023-01-29T05:38:55;102010.41;;;-0.07;81.88
70909;BME280;58554;52.006;5.926;2023-01-29T05:41:24;102017.38;;;-0.03;81.92
70909;BME280;58554;52.006;5.926;2023-01-29T05:43:50;102014.75;;;-0.05;81.78
70909;BME280;58554;52.006;5.926;2023-01-29T05:46:17;102019.94;;;-0.05;81.85
70909;BME280;58554;52.006;5.926;2023-01-29T05:48:43;102026.91;;;-0.04;81.71
70909;BME280;58554;52.006;5.926;2023-01-29T05:51:10;102026.94;;;-0.02;81.70
70909;BME280;58554;52.006;5.926;2023-01-29T05:53:36;102025.16;;;-0.03;82.00
70909;BME280;58554;52.006;5.926;2023-01-29T05:56:04;102030.38;;;-0.03;81.91
70909;BME280;58554;52.006;5.926;2023-01-29T05:58:34;102025.19;;;-0.02;81.86
70909;BME280;58554;52.006;5.926;2023-01-29T06:01:08;102029.53;;;-0.02;81.75
70909;BME280;58554;52.006;5.926;2023-01-29T06:03:35;102017.38;;;-0.00;81.77
70909;BME280;58554;52.006;5.926;2023-01-29T06:06:02;102006.97;;;-0.00;81.74
70909;BME280;58554;52.006;5.926;2023-01-29T06:08:28;101993.97;;;-0.02;81.90
70909;BME280;58554;52.006;5.926;2023-01-29T06:10:55;101989.66;;;0.00;81.88
70909;BME280;58554;52.006;5.926;2023-01-29T06:13:22;101984.44;;;-0.01;81.81
70909;BME280;58554;52.006;5.926;2023-01-29T06:15:51;101996.56;;;-0.00;82.01
70909;BME280;58554;52.006;5.926;2023-01-29T06:18:17;102000.06;;;0.00;81.92
70909;BME280;58554;52.006;5.926;2023-01-29T06:20:44;101989.66;;;0.02;82.02
70909;BME280;58554;52.006;5.926;2023-01-29T06:23:10;101985.31;;;-0.01;81.86
70909;BME280;58554;52.006;5.926;2023-01-29T06:25:37;101986.16;;;-0.00;82.14
70909;BME280;58554;52.006;5.926;2023-01-29T06:28:04;101980.13;;;-0.02;81.96
70909;BME280;58554;52.006;5.926;2023-01-29T06:30:30;101975.78;;;-0.02;82.00
70909;BME280;58554;52.006;5.926;2023-01-29T06:33:00;101982.72;;;-0.01;81.83
70909;BME280;58554;52.006;5.926;2023-01-29T06:35:26;101978.38;;;-0.00;82.12
70909;BME280;58554;52.006;5.926;2023-01-29T06:37:55;101978.38;;;0.01;81.83
70909;BME280;58554;52.006;5.926;2023-01-29T06:40:21;101967.13;;;0.03;81.86
70909;BME280;58554;52.006;5.926;2023-01-29T06:42:48;101971.47;;;0.00;81.97
70909;BME280;58554;52.006;5.926;2023-01-29T06:45:14;101984.44;;;0.02;82.05
70909;BME280;58554;52.006;5.926;2023-01-29T06:47:41;101987.06;;;0.04;81.96
70909;BME280;58554;52.006;5.926;2023-01-29T06:50:11;101990.53;;;0.04;81.64
70909;BME280;58554;52.006;5.926;2023-01-29T06:52:37;101976.66;;;0.04;81.74
70909;BME280;58554;52.006;5.926;2023-01-29T06:55:05;101991.44;;;0.05;81.88
70909;BME280;58554;52.006;5.926;2023-01-29T06:57:32;101988.81;;;0.06;81.73
70909;BME280;58554;52.006;5.926;2023-01-29T06:59:59;101983.63;;;0.05;81.88
70909;BME280;58554;52.006;5.926;2023-01-29T07:02:25;101987.94;;;0.06;81.94
70909;BME280;58554;52.006;5.926;2023-01-29T07:04:52;101981.03;;;0.08;81.76
70909;BME280;58554;52.006;5.926;2023-01-29T07:07:21;101982.78;;;0.09;81.73
70909;BME280;58554;52.006;5.926;2023-01-29T07:09:47;101975.84;;;0.09;81.70
70909;BME280;58554;52.006;5.926;2023-01-29T07:12:14;101978.44;;;0.09;81.65
70909;BME280;58554;52.006;5.926;2023-01-29T07:14:40;101979.31;;;0.10;81.69
70909;BME280;58554;52.006;5.926;2023-01-29T07:17:07;101976.69;;;0.10;81.56
70909;BME280;58554;52.006;5.926;2023-01-29T07:19:33;101973.25;;;0.11;81.88
70909;BME280;58554;52.006;5.926;2023-01-29T07:22:00;101977.59;;;0.12;81.71
70909;BME280;58554;52.006;5.926;2023-01-29T07:24:29;101975.84;;;0.12;81.61
70909;BME280;58554;52.006;5.926;2023-01-29T07:26:55;101988.00;;;0.13;81.55
70909;BME280;58554;52.006;5.926;2023-01-29T07:29:22;101969.78;;;0.12;81.67
70909;BME280;58554;52.006;5.926;2023-01-29T07:31:48;101974.09;;;0.10;81.52
70909;BME280;58554;52.006;5.926;2023-01-29T07:34:15;101977.56;;;0.10;81.47
70909;BME280;58554;52.006;5.926;2023-01-29T07:36:41;101978.47;;;0.11;81.56
70909;BME280;58554;52.006;5.926;2023-01-29T07:39:08;101981.03;;;0.12;81.67
70909;BME280;58554;52.006;5.926;2023-01-29T07:41:37;101991.47;;;0.15;81.45
70909;BME280;58554;52.006;5.926;2023-01-29T07:44:04;101987.13;;;0.16;81.68
70909;BME280;58554;52.006;5.926;2023-01-29T07:46:30;101981.94;;;0.16;81.32
70909;BME280;58554;52.006;5.926;2023-01-29T07:48:57;101975.00;;;0.16;81.70
70909;BME280;58554;52.006;5.926;2023-01-29T07:51:23;101975.88;;;0.20;81.37
70909;BME280;58554;52.006;5.926;2023-01-29T07:53:50;101975.03;;;0.19;81.63
70909;BME280;58554;52.006;5.926;2023-01-29T07:56:16;101973.31;;;0.21;81.66
70909;BME280;58554;52.006;5.926;2023-01-29T07:58:45;101960.28;;;0.25;81.54
70909;BME280;58554;52.006;5.926;2023-01-29T08:01:12;101942.09;;;0.26;81.57
70909;BME280;58554;52.006;5.926;2023-01-29T08:03:39;101939.53;;;0.28;81.48
70909;BME280;58554;52.006;5.926;2023-01-29T08:06:06;101930.84;;;0.29;81.34
70909;BME280;58554;52.006;5.926;2023-01-29T08:08:32;101927.41;;;0.31;81.46
70909;BME280;58554;52.006;5.926;2023-01-29T08:11:00;101930.00;;;0.31;81.37
70909;BME280;58554;52.006;5.926;2023-01-29T08:13:27;101940.41;;;0.34;81.29
70909;BME280;58554;52.006;5.926;2023-01-29T08:15:58;101941.28;;;0.36;81.54
70909;BME280;58554;52.006;5.926;2023-01-29T08:18:25;101948.22;;;0.39;81.31
70909;BME280;58554;52.006;5.926;2023-01-29T08:20:52;101944.75;;;0.41;81.15
70909;BME280;58554;52.006;5.926;2023-01-29T08:23:24;101934.34;;;0.43;80.87
70909;BME280;58554;52.006;5.926;2023-01-29T08:25:50;101936.13;;;0.44;81.14
70909;BME280;58554;52.006;5.926;2023-01-29T08:28:17;101938.72;;;0.42;80.74
70909;BME280;58554;52.006;5.926;2023-01-29T08:30:43;101932.66;;;0.47;80.91
70909;BME280;58554;52.006;5.926;2023-01-29T08:33:12;101931.78;;;0.49;80.84
70909;BME280;58554;52.006;5.926;2023-01-29T08:35:39;101924.00;;;0.51;80.91
70909;BME280;58554;52.006;5.926;2023-01-29T08:38:05;101926.59;;;0.52;80.63
70909;BME280;58554;52.006;5.926;2023-01-29T08:40:33;101921.38;;;0.54;80.54
70909;BME280;58554;52.006;5.926;2023-01-29T08:43:01;101913.56;;;0.54;80.70
70909;BME280;58554;52.006;5.926;2023-01-29T08:45:29;101901.44;;;0.56;80.46
70909;BME280;58554;52.006;5.926;2023-01-29T08:47:56;101891.94;;;0.63;80.72
70909;BME280;58554;52.006;5.926;2023-01-29T08:50:25;101903.19;;;0.66;80.57
70909;BME280;58554;52.006;5.926;2023-01-29T08:52:56;101904.09;;;0.71;80.37
70909;BME280;58554;52.006;5.926;2023-01-29T08:55:23;101891.09;;;0.77;80.53
70909;BME280;58554;52.006;5.926;2023-01-29T08:57:50;101894.53;;;0.82;80.47
70909;BME280;58554;52.006;5.926;2023-01-29T09:00:17;101902.38;;;0.86;80.19
70909;BME280;58554;52.006;5.926;2023-01-29T09:02:44;101904.97;;;0.89;80.37
70909;BME280;58554;52.006;5.926;2023-01-29T09:05:11;101908.44;;;0.89;79.71
70909;BME280;58554;52.006;5.926;2023-01-29T09:07:40;101906.72;;;0.90;79.89
70909;BME280;58554;52.006;5.926;2023-01-29T09:10:08;101911.91;;;0.93;80.10
70909;BME280;58554;52.006;5.926;2023-01-29T09:12:36;101905.84;;;0.97;79.80
70909;BME280;58554;52.006;5.926;2023-01-29T09:15:03;101900.63;;;1.01;80.24
70909;BME280;58554;52.006;5.926;2023-01-29T09:17:30;101898.03;;;1.03;79.72
70909;BME280;58554;52.006;5.926;2023-01-29T09:19:56;101898.91;;;1.05;79.83
70909;BME280;58554;52.006;5.926;2023-01-29T09:22:23;101896.31;;;1.05;79.77
70909;BME280;58554;52.006;5.926;2023-01-29T09:24:52;101893.69;;;1.08;79.99
70909;BME280;58554;52.006;5.926;2023-01-29T09:27:18;101898.91;;;1.10;79.33
70909;BME280;58554;52.006;5.926;2023-01-29T09:29:45;101902.38;;;1.12;79.60
70909;BME280;58554;52.006;5.926;2023-01-29T09:32:11;101897.16;;;1.13;79.50
70909;BME280;58554;52.006;5.926;2023-01-29T09:34:38;101899.75;;;1.16;79.62
70909;BME280;58554;52.006;5.926;2023-01-29T09:37:04;101897.16;;;1.19;79.92
70909;BME280;58554;52.006;5.926;2023-01-29T09:39:31;101898.06;;;1.23;79.99
70909;BME280;58554;52.006;5.926;2023-01-29T09:42:07;101896.28;;;1.28;79.56
70909;BME280;58554;52.006;5.926;2023-01-29T09:44:50;101902.38;;;1.32;79.48
70909;BME280;58554;52.006;5.926;2023-01-29T09:47:27;101906.72;;;1.34;79.42
70909;BME280;58554;52.006;5.926;2023-01-29T09:49:59;101900.66;;;1.34;78.41
70909;BME280;58554;52.006;5.926;2023-01-29T09:52:30;101902.38;;;1.35;79.22
70909;BME280;58554;52.006;5.926;2023-01-29T09:55:06;101901.50;;;1.37;79.27
70909;BME280;58554;52.006;5.926;2023-01-29T09:57:47;101908.44;;;1.38;78.11
70909;BME280;58554;52.006;5.926;2023-01-29T10:00:21;101901.50;;;1.42;79.10
70909;BME280;58554;52.006;5.926;2023-01-29T10:03:02;101896.25;;;1.43;78.73
70909;BME280;58554;52.006;5.926;2023-01-29T10:05:54;101898.91;;;1.48;79.13
70909;BME280;58554;52.006;5.926;2023-01-29T10:08:59;101888.44;;;1.51;78.16
70909;BME280;58554;52.006;5.926;2023-01-29T10:11:46;101890.19;;;1.54;78.28
70909;BME280;58554;52.006;5.926;2023-01-29T10:14:28;101888.44;;;1.57;78.52
70909;BME280;58554;52.006;5.926;2023-01-29T10:17:10;101892.78;;;1.61;78.49
70909;BME280;58554;52.006;5.926;2023-01-29T10:20:10;101892.75;;;1.64;78.08
70909;BME280;58554;52.006;5.926;2023-01-29T10:23:02;101890.16;;;1.68;78.18
70909;BME280;58554;52.006;5.926;2023-01-29T10:25:41;101884.91;;;1.71;78.34
70909;BME280;58554;52.006;5.926;2023-01-29T10:28:15;101884.06;;;1.73;78.50
70909;BME280;58554;52.006;5.926;2023-01-29T10:30:50;101884.06;;;1.73;77.97
70909;BME280;58554;52.006;5.926;2023-01-29T10:33:24;101882.31;;;1.74;78.05
70909;BME280;58554;52.006;5.926;2023-01-29T10:36:00;101879.72;;;1.75;77.72
70909;BME280;58554;52.006;5.926;2023-01-29T10:38:39;101884.03;;;1.76;77.78
70909;BME280;58554;52.006;5.926;2023-01-29T10:41:23;101872.72;;;1.79;77.79
70909;BME280;58554;52.006;5.926;2023-01-29T10:44:11;101876.19;;;1.81;77.23
70909;BME280;58554;52.006;5.926;2023-01-29T10:47:04;101877.97;;;1.83;77.82
70909;BME280;58554;52.006;5.926;2023-01-29T10:50:02;101862.28;;;1.79;76.03
70909;BME280;58554;52.006;5.926;2023-01-29T10:52:50;101860.56;;;1.78;76.66
70909;BME280;58554;52.006;5.926;2023-01-29T10:55:40;101854.47;;;1.79;76.13
70909;BME280;58554;52.006;5.926;2023-01-29T10:58:24;101855.38;;;1.78;75.36
70909;BME280;58554;52.006;5.926;2023-01-29T11:00:59;101851.00;;;1.77;76.08
70909;BME280;58554;52.006;5.926;2023-01-29T11:03:31;101846.66;;;1.79;76.59
70909;BME280;58554;52.006;5.926;2023-01-29T11:06:07;101837.97;;;1.80;76.15
70909;BME280;58554;52.006;5.926;2023-01-29T11:08:42;101831.00;;;1.80;75.60
70909;BME280;58554;52.006;5.926;2023-01-29T11:11:17;101825.78;;;1.80;76.80
70909;BME280;58554;52.006;5.926;2023-01-29T11:13:49;101824.94;;;1.81;76.05
70909;BME280;58554;52.006;5.926;2023-01-29T11:16:20;101813.63;;;1.84;76.36
70909;BME280;58554;52.006;5.926;2023-01-29T11:18:55;101816.19;;;1.87;77.07
70909;BME280;58554;52.006;5.926;2023-01-29T11:21:25;101806.63;;;1.89;76.55
70909;BME280;58554;52.006;5.926;2023-01-29T11:24:08;101797.94;;;1.87;75.29
70909;BME280;58554;52.006;5.926;2023-01-29T11:26:39;101797.94;;;1.92;76.90
70909;BME280;58554;52.006;5.926;2023-01-29T11:29:28;101787.47;;;1.95;74.97
70909;BME280;58554;52.006;5.926;2023-01-29T11:31:58;101777.91;;;1.97;76.21
70909;BME280;58554;52.006;5.926;2023-01-29T11:34:30;101776.13;;;2.02;76.41
70909;BME280;58554;52.006;5.926;2023-01-29T11:36:58;101763.06;;;2.07;76.54
70909;BME280;58554;52.006;5.926;2023-01-29T11:39:27;101765.66;;;2.10;75.49
70909;BME280;58554;52.006;5.926;2023-01-29T11:41:57;101768.22;;;2.14;76.43
70909;BME280;58554;52.006;5.926;2023-01-29T11:44:30;101769.09;;;2.16;75.04
70909;BME280;58554;52.006;5.926;2023-01-29T11:47:10;101763.91;;;2.13;73.95
70909;BME280;58554;52.006;5.926;2023-01-29T11:49:48;101762.16;;;2.12;74.98
70909;BME280;58554;52.006;5.926;2023-01-29T11:52:19;101763.03;;;2.13;75.30
70909;BME280;58554;52.006;5.926;2023-01-29T11:54:50;101749.97;;;2.17;75.92
70909;BME280;58554;52.006;5.926;2023-01-29T11:57:27;101746.47;;;2.20;74.29
70909;BME280;58554;52.006;5.926;2023-01-29T12:00:00;101739.47;;;2.22;75.44
70909;BME280;58554;52.006;5.926;2023-01-29T12:02:33;101732.50;;;2.24;75.12
70909;BME280;58554;52.006;5.926;2023-01-29T12:05:16;101722.88;;;2.29;76.07
70909;BME280;58554;52.006;5.926;2023-01-29T12:07:46;101725.50;;;2.32;76.02
70909;BME280;58554;52.006;5.926;2023-01-29T12:10:32;101726.34;;;2.33;75.26
70909;BME280;58554;52.006;5.926;2023-01-29T12:13:06;101712.41;;;2.37;76.29
70909;BME280;58554;52.006;5.926;2023-01-29T12:15:46;101720.19;;;2.41;76.48
70909;BME280;58554;52.006;5.926;2023-01-29T12:18:19;101723.66;;;2.45;76.15
70909;BME280;58554;52.006;5.926;2023-01-29T12:20:59;101714.97;;;2.43;75.04
70909;BME280;58554;52.006;5.926;2023-01-29T12:23:34;101705.41;;;2.40;75.33
70909;BME280;58554;52.006;5.926;2023-01-29T12:26:10;101705.44;;;2.37;74.59
70909;BME280;58554;52.006;5.926;2023-01-29T12:28:48;101692.38;;;2.39;75.86
70909;BME280;58554;52.006;5.926;2023-01-29T12:31:32;101697.59;;;2.40;76.17
70909;BME280;58554;52.006;5.926;2023-01-29T12:34:11;101695.84;;;2.42;76.30
70909;BME280;58554;52.006;5.926;2023-01-29T12:36:50;101691.47;;;2.41;75.70
70909;BME280;58554;52.006;5.926;2023-01-29T12:39:20;101681.94;;;2.42;76.13
70909;BME280;58554;52.006;5.926;2023-01-29T12:41:52;101672.34;;;2.42;76.41
70909;BME280;58554;52.006;5.926;2023-01-29T12:44:27;101669.78;;;2.38;75.04
70909;BME280;58554;52.006;5.926;2023-01-29T12:47:00;101662.84;;;2.34;75.69
70909;BME280;58554;52.006;5.926;2023-01-29T12:49:33;101660.25;;;2.34;76.17
70909;BME280;58554;52.006;5.926;2023-01-29T12:52:09;101656.75;;;2.35;76.20
70909;BME280;58554;52.006;5.926;2023-01-29T12:54:46;101653.28;;;2.34;76.05
70909;BME280;58554;52.006;5.926;2023-01-29T12:57:20;101650.63;;;2.37;76.37
70909;BME280;58554;52.006;5.926;2023-01-29T12:59:53;101644.53;;;2.38;76.04
70909;BME280;58554;52.006;5.926;2023-01-29T13:02:32;101635.81;;;2.39;76.52
70909;BME280;58554;52.006;5.926;2023-01-29T13:05:14;101631.44;;;2.41;76.80
70909;BME280;58554;52.006;5.926;2023-01-29T13:07:51;101645.34;;;2.43;76.08
70909;BME280;58554;52.006;5.926;2023-01-29T13:10:25;101617.56;;;2.38;75.96
70909;BME280;58554;52.006;5.926;2023-01-29T13:13:00;101611.47;;;2.37;76.56
70909;BME280;58554;52.006;5.926;2023-01-29T13:15:34;101609.72;;;2.39;76.58
70909;BME280;58554;52.006;5.926;2023-01-29T13:18:21;101608.00;;;2.38;76.66
70909;BME280;58554;52.006;5.926;2023-01-29T13:20:59;101592.34;;;2.38;76.30
70909;BME280;58554;52.006;5.926;2023-01-29T13:23:33;101588.88;;;2.35;76.77